createdAt,value
2022-11-25T00:01:30.689Z,9.63
2022-11-25T00:03:04.812Z,10.97
2022-11-25T00:04:39.191Z,9.63
2022-11-25T00:06:13.452Z,11.10
2022-11-25T00:07:46.587Z,14.47
2022-11-25T00:09:21.289Z,13.47
2022-11-25T00:10:53.352Z,14.90
2022-11-25T00:12:26.447Z,16.50
2022-11-25T00:13:59.842Z,17.43
2022-11-25T00:15:31.954Z,24.37
2022-11-25T00:17:05.110Z,22.93
2022-11-25T00:18:38.797Z,18.20
2022-11-25T00:20:12.305Z,17.03
2022-11-25T00:21:45.387Z,21.40
2022-11-25T00:23:18.468Z,25.13
2022-11-25T00:24:52.922Z,31.60
2022-11-25T00:26:27.451Z,22.33
2022-11-25T00:28:00.676Z,27.57
2022-11-25T00:29:34.882Z,23.67
2022-11-25T00:31:08.431Z,28.53
2022-11-25T00:32:41.474Z,29.27
2022-11-25T00:34:15.996Z,31.67
2022-11-25T00:35:49.263Z,36.80
2022-11-25T00:37:22.337Z,36.97
2022-11-25T00:38:56.502Z,38.27
2022-11-25T00:40:30.925Z,37.07
2022-11-25T00:42:17.978Z,41.53
2022-11-25T00:44:08.528Z,45.43
2022-11-25T00:45:41.853Z,45.37
2022-11-25T00:47:17.134Z,50.27
2022-11-25T00:48:50.231Z,44.87
2022-11-25T00:50:23.289Z,48.27
2022-11-25T00:51:55.854Z,48.10
2022-11-25T00:53:28.911Z,42.93
2022-11-25T00:55:02.066Z,43.77
2022-11-25T00:56:35.704Z,41.50
2022-11-25T00:58:08.761Z,43.97
2022-11-25T00:59:42.138Z,42.70
2022-11-25T01:01:14.302Z,39.83
2022-11-25T01:02:49.108Z,46.37
2022-11-25T01:04:22.357Z,45.07
2022-11-25T01:05:54.418Z,43.27
2022-11-25T01:07:27.715Z,44.43
2022-11-25T01:09:02.302Z,42.60
2022-11-25T01:10:35.398Z,39.23
2022-11-25T01:12:09.966Z,41.13
2022-11-25T01:13:42.344Z,44.47
2022-11-25T01:15:15.582Z,42.40
2022-11-25T01:16:48.784Z,43.93
2022-11-25T01:18:20.893Z,39.17
2022-11-25T01:19:53.988Z,41.87
2022-11-25T01:21:28.455Z,41.33
2022-11-25T01:23:01.495Z,42.33
2022-11-25T01:24:34.538Z,41.20
2022-11-25T01:26:10.358Z,41.17
2022-11-25T01:27:44.788Z,36.63
2022-11-25T01:29:19.212Z,37.77
2022-11-25T01:31:01.036Z,35.43
2022-11-25T01:32:34.095Z,34.37
2022-11-25T01:34:09.213Z,33.53
2022-11-25T01:35:42.291Z,34.90
2022-11-25T01:37:15.361Z,37.37
2022-11-25T01:38:51.407Z,39.40
2022-11-25T01:40:24.485Z,36.87
2022-11-25T01:41:56.614Z,38.37
2022-11-25T01:43:31.283Z,34.13
2022-11-25T01:45:35.100Z,30.53
2022-11-25T01:47:15.775Z,34.23
2022-11-25T01:48:51.394Z,32.23
2022-11-25T01:50:26.959Z,35.17
2022-11-25T01:52:06.968Z,30.00
2022-11-25T01:53:40.048Z,31.40
2022-11-25T01:55:18.611Z,30.87
2022-11-25T01:56:55.888Z,29.37
2022-11-25T01:58:34.844Z,30.43
2022-11-25T02:00:09.618Z,35.40
2022-11-25T02:01:54.110Z,33.93
2022-11-25T02:03:31.893Z,28.93
2022-11-25T02:05:10.478Z,29.47
2022-11-25T02:06:47.992Z,31.37
2022-11-25T02:08:24.057Z,30.40
2022-11-25T02:09:57.702Z,31.87
2022-11-25T02:11:33.108Z,26.13
2022-11-25T02:13:06.319Z,32.37
2022-11-25T02:14:44.586Z,37.47
2022-11-25T02:16:17.827Z,36.53
2022-11-25T02:17:51.272Z,39.03
2022-11-25T02:19:28.754Z,39.43
2022-11-25T02:21:01.943Z,38.00
2022-11-25T02:22:50.849Z,36.53
2022-11-25T02:24:31.081Z,33.80
2022-11-25T02:26:06.539Z,34.47
2022-11-25T02:27:38.641Z,32.40
2022-11-25T02:29:12.116Z,27.13
2022-11-25T02:30:46.672Z,30.43
2022-11-25T02:32:21.945Z,32.60
2022-11-25T02:33:54.998Z,23.17
2022-11-25T02:35:30.387Z,27.57
2022-11-25T02:37:03.740Z,24.90
2022-11-25T02:38:40.479Z,25.50
2022-11-25T02:40:14.571Z,30.77
2022-11-25T02:41:54.009Z,28.73
2022-11-25T02:43:27.854Z,32.93
2022-11-25T02:44:59.962Z,31.30
2022-11-25T02:46:33.322Z,30.23
2022-11-25T02:48:07.617Z,28.53
2022-11-25T02:49:40.673Z,34.37
2022-11-25T02:51:15.490Z,31.40
2022-11-25T02:52:48.605Z,33.87
2022-11-25T02:54:21.742Z,35.97
2022-11-25T02:55:55.635Z,30.77
2022-11-25T02:57:30.259Z,32.90
2022-11-25T02:59:03.987Z,33.17
2022-11-25T03:00:37.782Z,33.63
2022-11-25T03:02:11.239Z,32.07
2022-11-25T03:03:44.964Z,33.33
2022-11-25T03:05:18.045Z,32.23
2022-11-25T03:06:51.112Z,31.57
2022-11-25T03:08:24.386Z,33.20
2022-11-25T03:09:57.412Z,32.77
2022-11-25T03:11:44.762Z,28.93
2022-11-25T03:13:19.421Z,31.53
2022-11-25T03:14:51.826Z,28.87
2022-11-25T03:16:25.077Z,28.70
2022-11-25T03:17:58.225Z,34.60
2022-11-25T03:19:30.521Z,30.03
2022-11-25T03:21:03.631Z,32.70
2022-11-25T03:22:36.790Z,29.83
2022-11-25T03:24:10.828Z,32.80
2022-11-25T03:25:43.905Z,31.23
2022-11-25T03:27:16.241Z,29.30
2022-11-25T03:28:50.646Z,27.17
2022-11-25T03:30:25.642Z,31.13
2022-11-25T03:32:04.310Z,29.57
2022-11-25T03:33:41.275Z,26.37
2022-11-25T03:35:15.256Z,24.83
2022-11-25T03:36:48.656Z,25.13
2022-11-25T03:38:21.971Z,25.33
2022-11-25T03:39:55.072Z,27.07
2022-11-25T03:41:27.202Z,26.30
2022-11-25T03:43:00.560Z,26.20
2022-11-25T03:44:34.934Z,26.73
2022-11-25T03:46:08.287Z,23.27
2022-11-25T03:47:42.167Z,26.83
2022-11-25T03:49:15.611Z,24.07
2022-11-25T03:50:49.713Z,29.90
2022-11-25T03:52:22.911Z,25.17
2022-11-25T03:53:55.303Z,25.93
2022-11-25T03:55:29.551Z,24.67
2022-11-25T03:57:01.745Z,27.23
2022-11-25T03:58:35.804Z,26.13
2022-11-25T04:00:12.995Z,27.37
2022-11-25T04:01:57.777Z,25.60
2022-11-25T04:03:31.421Z,25.27
2022-11-25T04:05:05.512Z,25.00
2022-11-25T04:06:39.303Z,27.50
2022-11-25T04:08:12.388Z,27.20
2022-11-25T04:09:45.847Z,27.63
2022-11-25T04:11:22.405Z,26.93
2022-11-25T04:13:00.554Z,30.57
2022-11-25T04:14:40.075Z,27.20
2022-11-25T04:16:23.924Z,27.60
2022-11-25T04:17:58.377Z,27.83
2022-11-25T04:19:31.801Z,27.97
2022-11-25T04:21:05.261Z,27.47
2022-11-25T04:22:39.350Z,28.93
2022-11-25T04:24:13.097Z,23.60
2022-11-25T04:25:46.383Z,24.73
2022-11-25T04:27:27.206Z,27.50
2022-11-25T04:29:00.785Z,27.63
2022-11-25T04:30:34.697Z,25.77
2022-11-25T04:32:10.542Z,24.63
2022-11-25T04:33:47.180Z,26.23
2022-11-25T04:35:24.689Z,23.03
2022-11-25T04:37:00.405Z,25.60
2022-11-25T04:38:34.727Z,31.80
2022-11-25T04:40:10.024Z,26.27
2022-11-25T04:41:43.280Z,25.60
2022-11-25T04:43:15.403Z,24.37
2022-11-25T04:45:20.910Z,25.87
2022-11-25T04:46:49.376Z,25.60
2022-11-25T04:48:23.966Z,22.70
2022-11-25T04:49:57.724Z,24.07
2022-11-25T04:51:31.703Z,21.83
2022-11-25T04:53:06.998Z,24.03
2022-11-25T04:54:40.096Z,23.80
2022-11-25T04:56:18.974Z,20.20
2022-11-25T04:57:53.221Z,26.23
2022-11-25T04:59:40.769Z,21.30
2022-11-25T05:01:14.661Z,24.13
2022-11-25T05:02:51.873Z,22.10
2022-11-25T05:04:27.397Z,21.37
2022-11-25T05:06:01.096Z,21.23
2022-11-25T05:07:35.138Z,23.60
2022-11-25T05:09:10.875Z,25.50
2022-11-25T05:10:45.554Z,23.20
2022-11-25T05:12:22.186Z,20.97
2022-11-25T05:13:55.488Z,20.80
2022-11-25T05:15:28.981Z,29.03
2022-11-25T05:17:02.253Z,22.83
2022-11-25T05:18:35.460Z,22.03
2022-11-25T05:20:12.165Z,24.97
2022-11-25T05:21:44.397Z,28.27
2022-11-25T05:23:18.186Z,24.03
2022-11-25T05:24:51.605Z,26.30
2022-11-25T05:26:25.451Z,23.80
2022-11-25T05:28:02.180Z,23.57
2022-11-25T05:29:35.289Z,26.27
2022-11-25T05:31:08.778Z,26.67
2022-11-25T05:32:41.907Z,25.70
2022-11-25T05:34:16.859Z,28.40
2022-11-25T05:36:00.237Z,28.77
2022-11-25T05:37:38.569Z,24.90
2022-11-25T05:39:12.665Z,19.97
2022-11-25T05:41:20.947Z,21.03
2022-11-25T05:42:54.231Z,22.10
2022-11-25T05:44:27.854Z,21.33
2022-11-25T05:46:05.026Z,19.53
2022-11-25T05:47:38.838Z,22.73
2022-11-25T05:49:12.917Z,21.70
2022-11-25T05:50:45.180Z,18.53
2022-11-25T05:52:28.406Z,19.40
2022-11-25T05:54:04.549Z,20.57
2022-11-25T05:55:39.923Z,19.23
2022-11-25T05:57:20.744Z,13.87
2022-11-25T05:59:01.283Z,16.37
2022-11-25T06:00:47.244Z,14.60
2022-11-25T06:02:20.463Z,15.20
2022-11-25T06:03:53.901Z,17.57
2022-11-25T06:05:27.006Z,19.30
2022-11-25T06:07:00.264Z,14.77
2022-11-25T06:08:35.309Z,16.70
2022-11-25T06:10:09.450Z,16.33
2022-11-25T06:11:44.827Z,13.65
2022-11-25T06:13:18.073Z,15.10
2022-11-25T06:14:52.388Z,18.95
2022-11-25T06:16:26.618Z,12.60
2022-11-25T06:18:10.108Z,15.25
2022-11-25T06:19:44.049Z,11.77
2022-11-25T06:21:18.010Z,18.20
2022-11-25T06:22:51.100Z,12.75
2022-11-25T06:24:31.338Z,15.38
2022-11-25T06:26:12.404Z,14.25
2022-11-25T06:28:11.177Z,17.30
2022-11-25T06:29:39.601Z,17.65
2022-11-25T06:31:14.156Z,17.23
2022-11-25T06:32:56.790Z,13.50
2022-11-25T06:34:30.369Z,17.92
2022-11-25T06:36:05.443Z,12.10
2022-11-25T06:37:38.937Z,13.30
2022-11-25T06:39:12.083Z,15.32
2022-11-25T06:40:46.529Z,11.90
2022-11-25T06:42:19.623Z,13.85
2022-11-25T06:43:52.805Z,19.23
2022-11-25T06:45:25.843Z,14.98
2022-11-25T06:46:58.929Z,17.15
2022-11-25T06:48:32.055Z,14.95
2022-11-25T06:50:06.017Z,18.15
2022-11-25T06:51:39.091Z,15.15
2022-11-25T06:53:12.294Z,21.60
2022-11-25T06:54:45.928Z,22.58
2022-11-25T06:56:21.463Z,20.77
2022-11-25T06:58:08.478Z,18.98
2022-11-25T06:59:47.753Z,22.25
2022-11-25T07:01:22.986Z,18.25
2022-11-25T07:02:56.132Z,25.42
2022-11-25T07:04:29.404Z,21.20
2022-11-25T07:06:02.882Z,19.80
2022-11-25T07:07:35.995Z,20.33
2022-11-25T07:09:09.411Z,21.45
2022-11-25T07:10:42.544Z,23.65
2022-11-25T07:12:17.031Z,22.33
2022-11-25T07:13:53.815Z,23.15
2022-11-25T07:15:26.855Z,23.85
2022-11-25T07:16:59.957Z,25.25
2022-11-25T07:18:34.406Z,23.75
2022-11-25T07:20:08.975Z,27.70
2022-11-25T07:21:43.399Z,23.60
2022-11-25T07:23:16.493Z,30.80
2022-11-25T07:24:49.580Z,29.97
2022-11-25T07:26:24.831Z,32.60
2022-11-25T07:27:59.789Z,32.27
2022-11-25T07:31:31.574Z,46.47
2022-11-25T07:33:06.050Z,50.90
2022-11-25T07:34:39.400Z,47.53
2022-11-25T07:36:13.885Z,65.77
2022-11-25T07:37:47.305Z,70.23
2022-11-25T07:39:22.807Z,73.77
2022-11-25T07:40:55.900Z,63.20
2022-11-25T07:42:28.970Z,64.63
2022-11-25T07:44:05.059Z,57.80
2022-11-25T07:45:49.506Z,80.93
2022-11-25T07:47:22.552Z,83.20
2022-11-25T07:48:57.032Z,45.13
2022-11-25T07:50:30.102Z,58.13
2022-11-25T07:52:04.599Z,33.97
2022-11-25T07:53:37.660Z,40.47
2022-11-25T07:55:11.258Z,33.17
2022-11-25T07:56:45.712Z,46.67
2022-11-25T07:58:18.890Z,49.67
2022-11-25T07:59:53.315Z,50.23
2022-11-25T08:01:26.604Z,52.63
2022-11-25T08:02:59.740Z,52.00
2022-11-25T08:04:32.905Z,40.33
2022-11-25T08:06:08.064Z,51.03
2022-11-25T08:07:41.163Z,50.77
2022-11-25T08:09:16.345Z,35.43
2022-11-25T08:10:49.407Z,67.20
2022-11-25T08:12:22.473Z,48.67
2022-11-25T08:13:56.484Z,56.93
2022-11-25T08:15:31.000Z,45.60
2022-11-25T08:17:06.049Z,50.00
2022-11-25T08:18:39.186Z,30.07
2022-11-25T08:20:12.865Z,26.17
2022-11-25T08:21:47.848Z,24.03
2022-11-25T08:23:20.946Z,19.97
2022-11-25T08:24:54.017Z,21.70
2022-11-25T08:26:30.225Z,20.77
2022-11-25T08:28:03.371Z,23.03
2022-11-25T08:29:36.620Z,22.20
2022-11-25T08:31:13.623Z,23.50
2022-11-25T08:32:46.752Z,24.17
2022-11-25T08:34:22.110Z,25.30
2022-11-25T08:35:57.361Z,23.73
2022-11-25T08:37:32.670Z,25.03
2022-11-25T08:39:28.831Z,25.30
2022-11-25T08:41:01.695Z,24.90
2022-11-25T08:42:34.871Z,38.67
2022-11-25T08:44:09.838Z,27.23
2022-11-25T08:45:43.178Z,32.00
2022-11-25T08:47:17.653Z,29.47
2022-11-25T08:48:51.050Z,27.70
2022-11-25T08:50:25.465Z,26.23
2022-11-25T08:51:58.607Z,25.07
2022-11-25T08:53:31.858Z,26.77
2022-11-25T08:55:05.657Z,26.63
2022-11-25T08:56:38.840Z,29.03
2022-11-25T08:58:13.185Z,26.53
2022-11-25T08:59:46.292Z,28.57
2022-11-25T09:01:20.741Z,28.13
2022-11-25T09:02:55.417Z,24.03
2022-11-25T09:04:28.624Z,26.23
2022-11-25T09:06:01.901Z,26.43
2022-11-25T09:07:35.110Z,25.43
2022-11-25T09:09:08.205Z,27.33
2022-11-25T09:10:41.897Z,31.87
2022-11-25T09:12:14.978Z,26.40
2022-11-25T09:13:48.207Z,26.73
2022-11-25T09:15:21.385Z,26.20
2022-11-25T09:16:56.611Z,26.63
2022-11-25T09:18:32.579Z,25.23
2022-11-25T09:20:06.850Z,23.57
2022-11-25T09:21:39.967Z,25.30
2022-11-25T09:23:13.033Z,21.97
2022-11-25T09:24:46.296Z,22.30
2022-11-25T09:26:23.840Z,21.03
2022-11-25T09:27:58.050Z,18.20
2022-11-25T09:29:31.240Z,18.03
2022-11-25T09:31:08.889Z,17.20
2022-11-25T09:32:42.068Z,17.97
2022-11-25T09:34:16.576Z,16.13
2022-11-25T09:35:50.324Z,18.60
2022-11-25T09:37:23.401Z,17.57
2022-11-25T09:38:56.875Z,18.40
2022-11-25T09:40:36.957Z,16.00
2022-11-25T09:42:43.319Z,17.10
2022-11-25T09:44:44.548Z,17.90
2022-11-25T09:46:46.004Z,20.30
2022-11-25T09:48:47.425Z,15.17
2022-11-25T09:50:37.370Z,16.43
2022-11-25T09:52:19.995Z,19.20
2022-11-25T09:53:55.069Z,15.87
2022-11-25T09:55:34.908Z,15.90
2022-11-25T09:57:21.467Z,21.37
2022-11-25T09:58:59.515Z,16.93
2022-11-25T10:00:39.094Z,19.30
2022-11-25T10:02:17.075Z,17.50
2022-11-25T10:03:54.631Z,16.20
2022-11-25T10:05:32.304Z,16.33
2022-11-25T10:07:09.976Z,16.87
2022-11-25T10:08:45.614Z,15.33
2022-11-25T10:10:23.890Z,15.00
2022-11-25T10:12:01.971Z,16.83
2022-11-25T10:13:43.196Z,16.17
2022-11-25T10:15:22.245Z,15.10
2022-11-25T10:17:04.848Z,15.90
2022-11-25T10:18:43.294Z,13.40
2022-11-25T10:20:21.658Z,14.13
2022-11-25T10:21:56.098Z,14.70
2022-11-25T10:23:34.972Z,13.83
2022-11-25T10:25:15.442Z,14.60
2022-11-25T10:26:57.508Z,13.70
2022-11-25T10:28:32.816Z,13.47
2022-11-25T10:30:14.602Z,14.90
2022-11-25T10:31:47.737Z,15.37
2022-11-25T10:33:22.791Z,13.47
2022-11-25T10:35:00.381Z,15.37
2022-11-25T10:36:35.928Z,11.77
2022-11-25T10:38:20.842Z,12.57
2022-11-25T10:39:53.921Z,11.03
2022-11-25T10:41:30.276Z,11.37
2022-11-25T10:43:11.026Z,11.40
2022-11-25T10:44:44.079Z,13.07
2022-11-25T10:46:49.660Z,11.57
2022-11-25T10:48:46.650Z,12.87
2022-11-25T10:50:28.817Z,12.30
2022-11-25T10:52:01.947Z,13.23
2022-11-25T10:53:36.418Z,11.77
2022-11-25T10:55:13.590Z,12.20
2022-11-25T10:56:50.792Z,12.43
2022-11-25T10:58:30.873Z,11.00
2022-11-25T11:00:12.770Z,11.63
2022-11-25T11:01:48.827Z,13.47
2022-11-25T11:03:26.225Z,12.07
2022-11-25T11:05:02.814Z,11.97
2022-11-25T11:06:38.966Z,13.60
2022-11-25T11:08:19.621Z,10.17
2022-11-25T11:09:54.162Z,11.17
2022-11-25T11:11:27.357Z,12.80
2022-11-25T11:13:02.349Z,8.93
2022-11-25T11:14:35.830Z,11.23
2022-11-25T11:16:26.842Z,10.30
2022-11-25T11:18:14.856Z,10.30
2022-11-25T11:20:02.478Z,10.83
2022-11-25T11:21:37.789Z,10.13
2022-11-25T11:23:14.071Z,11.60
2022-11-25T11:24:47.193Z,10.90
2022-11-25T11:26:26.272Z,10.27
2022-11-25T11:27:59.866Z,12.70
2022-11-25T11:29:33.164Z,11.70
2022-11-25T11:31:09.833Z,12.20
2022-11-25T11:32:47.799Z,10.60
2022-11-25T11:34:44.301Z,9.63
2022-11-25T11:36:38.550Z,11.20
2022-11-25T11:38:26.589Z,11.57
2022-11-25T11:40:16.110Z,11.70
2022-11-25T11:41:56.450Z,10.40
2022-11-25T11:43:42.297Z,11.97
2022-11-25T11:45:31.839Z,10.70
2022-11-25T11:47:24.395Z,10.67
2022-11-25T11:49:15.061Z,10.13
2022-11-25T11:50:50.129Z,14.47
2022-11-25T11:52:33.122Z,10.73
2022-11-25T11:54:10.882Z,10.90
2022-11-25T11:56:26.726Z,13.20
2022-11-25T11:58:01.341Z,14.03
2022-11-25T11:59:48.840Z,12.47
2022-11-25T12:01:40.176Z,11.13
2022-11-25T12:03:17.823Z,11.10
2022-11-25T12:05:00.751Z,12.67
2022-11-25T12:06:38.063Z,13.10
2022-11-25T12:08:14.897Z,13.53
2022-11-25T12:09:53.572Z,12.73
2022-11-25T12:11:31.050Z,14.73
2022-11-25T12:13:14.327Z,14.07
2022-11-25T12:14:51.614Z,14.97
2022-11-25T12:16:32.791Z,14.70
2022-11-25T12:18:16.078Z,14.87
2022-11-25T12:19:57.970Z,15.27
2022-11-25T12:21:45.258Z,11.83
2022-11-25T12:23:28.000Z,13.27
2022-11-25T12:25:08.956Z,14.37
2022-11-25T12:26:50.349Z,14.97
2022-11-25T12:28:30.583Z,14.27
2022-11-25T12:30:07.948Z,14.00
2022-11-25T12:31:45.375Z,13.10
2022-11-25T12:33:23.310Z,15.37
2022-11-25T12:35:02.643Z,15.87
2022-11-25T12:36:38.385Z,14.90
2022-11-25T12:38:24.704Z,14.03
2022-11-25T12:40:04.343Z,15.67
2022-11-25T12:41:43.278Z,16.60
2022-11-25T12:43:25.356Z,16.87
2022-11-25T12:45:05.979Z,14.10
2022-11-25T12:46:44.031Z,14.93
2022-11-25T12:48:21.315Z,14.97
2022-11-25T12:49:56.332Z,15.27
2022-11-25T12:51:45.440Z,15.83
2022-11-25T12:53:27.929Z,16.07
2022-11-25T12:55:14.778Z,16.53
2022-11-25T12:57:07.562Z,13.83
2022-11-25T12:58:50.938Z,14.50
2022-11-25T13:00:41.651Z,16.60
2022-11-25T13:02:35.780Z,16.27
2022-11-25T13:04:28.589Z,16.87
2022-11-25T13:06:17.331Z,15.03
2022-11-25T13:08:04.582Z,17.57
2022-11-25T13:09:54.528Z,17.40
2022-11-25T13:12:01.449Z,17.80
2022-11-25T13:13:48.276Z,17.63
2022-11-25T13:15:27.690Z,15.70
2022-11-25T13:17:02.044Z,16.73
2022-11-25T13:18:39.496Z,15.20
2022-11-25T13:20:52.085Z,14.30
2022-11-25T13:22:29.731Z,16.23
2022-11-25T13:24:02.872Z,16.77
2022-11-25T13:25:37.438Z,16.20
2022-11-25T13:27:31.292Z,15.90
2022-11-25T13:29:40.434Z,15.83
2022-11-25T13:31:23.392Z,16.00
2022-11-25T13:32:56.574Z,17.50
2022-11-25T13:34:31.357Z,17.50
2022-11-25T13:36:18.595Z,16.07
2022-11-25T13:37:52.541Z,14.73
2022-11-25T13:39:34.755Z,15.90
2022-11-25T13:41:24.885Z,14.93
2022-11-25T13:43:00.416Z,16.17
2022-11-25T13:44:36.221Z,16.97
2022-11-25T13:46:09.762Z,16.30
2022-11-25T13:47:49.165Z,16.40
2022-11-25T13:49:29.477Z,16.50
2022-11-25T13:51:18.446Z,17.70
2022-11-25T13:52:59.402Z,16.17
2022-11-25T13:54:40.362Z,19.00
2022-11-25T13:56:16.449Z,15.87
2022-11-25T13:58:00.727Z,19.40
2022-11-25T13:59:38.704Z,17.83
2022-11-25T14:01:29.417Z,20.27
2022-11-25T14:03:44.842Z,19.67
2022-11-25T14:05:55.377Z,19.03
2022-11-25T14:07:36.544Z,22.13
2022-11-25T14:09:21.320Z,20.10
2022-11-25T14:11:07.135Z,20.33
2022-11-25T14:12:58.354Z,19.57
2022-11-25T14:14:49.798Z,20.10
2022-11-25T14:16:40.615Z,22.33
2022-11-25T14:19:17.291Z,23.30
2022-11-25T14:20:49.144Z,18.97
2022-11-25T14:22:41.688Z,22.00
2022-11-25T14:24:25.222Z,23.07
2022-11-25T14:26:11.649Z,21.80
2022-11-25T14:27:52.819Z,20.77
2022-11-25T14:29:31.157Z,23.87
2022-11-25T14:31:10.029Z,21.73
2022-11-25T14:32:48.813Z,23.60
2022-11-25T14:34:25.388Z,22.03
2022-11-25T14:36:07.804Z,24.67
2022-11-25T14:37:44.938Z,24.10
2022-11-25T14:39:24.076Z,24.90
2022-11-25T14:41:01.653Z,21.83
2022-11-25T14:42:38.811Z,25.63
2022-11-25T14:44:16.958Z,24.17
2022-11-25T14:46:09.598Z,30.47
2022-11-25T14:47:42.707Z,27.33
2022-11-25T14:49:44.140Z,27.77
2022-11-25T14:51:13.752Z,25.97
2022-11-25T14:52:48.196Z,28.67
2022-11-25T14:54:22.344Z,27.80
2022-11-25T14:55:57.832Z,27.23
2022-11-25T14:57:36.132Z,31.73
2022-11-25T14:59:11.052Z,27.67
2022-11-25T15:00:51.849Z,29.90
2022-11-25T15:02:28.543Z,29.60
2022-11-25T15:04:04.961Z,28.73
2022-11-25T15:05:40.990Z,31.00
2022-11-25T15:07:26.318Z,27.10
2022-11-25T15:09:02.836Z,30.67
2022-11-25T15:10:41.257Z,29.57
2022-11-25T15:12:17.762Z,30.40
2022-11-25T15:13:54.777Z,28.90
2022-11-25T15:15:28.887Z,31.67
2022-11-25T15:17:07.613Z,29.10
2022-11-25T15:18:48.134Z,31.07
2022-11-25T15:20:21.356Z,30.23
2022-11-25T15:23:53.826Z,32.60
2022-11-25T15:25:26.940Z,30.40
2022-11-25T15:27:02.548Z,30.47
2022-11-25T15:28:37.026Z,29.10
2022-11-25T15:30:21.860Z,30.63
2022-11-25T15:31:55.913Z,30.77
2022-11-25T15:33:30.430Z,34.43
2022-11-25T15:35:04.520Z,29.63
2022-11-25T15:36:37.785Z,31.77
2022-11-25T15:38:20.556Z,31.93
2022-11-25T15:40:27.065Z,32.80
2022-11-25T15:42:08.970Z,31.20
2022-11-25T15:43:47.385Z,34.40
2022-11-25T15:45:22.836Z,37.77
2022-11-25T15:47:01.182Z,32.07
2022-11-25T15:48:38.486Z,34.37
2022-11-25T15:50:22.399Z,29.37
2022-11-25T15:52:00.242Z,30.67
2022-11-25T15:53:37.564Z,33.20
2022-11-25T15:55:25.718Z,32.50
2022-11-25T15:57:03.254Z,32.50
2022-11-25T15:58:37.800Z,32.20
2022-11-25T16:00:16.684Z,34.30
2022-11-25T16:01:49.871Z,36.33
2022-11-25T16:03:23.866Z,31.13
2022-11-25T16:05:16.085Z,28.97
2022-11-25T16:06:56.802Z,32.33
2022-11-25T16:08:36.007Z,31.20
2022-11-25T16:10:19.230Z,31.20
2022-11-25T16:11:52.356Z,32.67
2022-11-25T16:13:38.561Z,31.77
2022-11-25T16:15:17.932Z,32.00
2022-11-25T16:16:51.216Z,32.20
2022-11-25T16:18:39.657Z,33.13
2022-11-25T16:20:18.967Z,33.90
2022-11-25T16:21:56.068Z,34.57
2022-11-25T16:23:29.382Z,38.87
2022-11-25T16:25:03.067Z,34.53
2022-11-25T16:26:39.157Z,31.40
2022-11-25T16:28:20.262Z,34.40
2022-11-25T16:29:57.012Z,31.30
2022-11-25T16:31:30.218Z,30.90
2022-11-25T16:33:03.689Z,32.97
2022-11-25T16:34:37.056Z,33.70
2022-11-25T16:36:10.925Z,30.43
2022-11-25T16:37:48.470Z,31.20
2022-11-25T16:39:22.174Z,31.10
2022-11-25T16:40:55.365Z,29.57
2022-11-25T16:42:28.410Z,30.87
2022-11-25T16:44:04.766Z,30.50
2022-11-25T16:45:42.281Z,32.43
2022-11-25T16:47:15.471Z,31.43
2022-11-25T16:48:52.328Z,34.03
2022-11-25T16:50:25.712Z,37.63
2022-11-25T16:51:59.090Z,31.47
2022-11-25T16:53:32.188Z,33.00
2022-11-25T16:55:05.870Z,37.33
2022-11-25T16:56:41.232Z,36.23
2022-11-25T16:58:20.325Z,34.00
2022-11-25T16:59:58.778Z,36.80
2022-11-25T17:01:34.965Z,35.60
2022-11-25T17:03:12.615Z,32.53
2022-11-25T17:04:46.055Z,36.87
2022-11-25T17:06:22.389Z,32.80
2022-11-25T17:07:56.313Z,37.13
2022-11-25T17:09:29.499Z,38.53
2022-11-25T17:11:02.977Z,39.27
2022-11-25T17:12:38.542Z,36.07
2022-11-25T17:14:19.238Z,37.70
2022-11-25T17:15:52.833Z,36.47
2022-11-25T17:17:27.928Z,38.33
2022-11-25T17:19:01.756Z,36.90
2022-11-25T17:20:34.967Z,35.00
2022-11-25T17:22:17.041Z,35.90
2022-11-25T17:23:53.818Z,37.90
2022-11-25T17:25:35.254Z,38.23
2022-11-25T17:27:11.743Z,40.97
2022-11-25T17:28:45.603Z,42.13
2022-11-25T17:30:22.609Z,36.97
2022-11-25T17:31:58.585Z,40.40
2022-11-25T17:33:33.459Z,41.53
2022-11-25T17:35:17.606Z,37.33
2022-11-25T17:36:52.128Z,38.37
2022-11-25T17:38:25.485Z,37.60
2022-11-25T17:39:58.869Z,38.50
2022-11-25T17:41:39.537Z,41.93
2022-11-25T17:43:16.668Z,38.47
2022-11-25T17:44:53.072Z,42.70
2022-11-25T17:46:29.609Z,37.60
2022-11-25T17:48:02.714Z,37.50
2022-11-25T17:49:37.138Z,44.17
2022-11-25T17:51:10.954Z,42.50
2022-11-25T17:52:44.003Z,36.90
2022-11-25T17:54:17.941Z,36.27
2022-11-25T17:55:51.409Z,38.13
2022-11-25T17:57:29.136Z,38.30
2022-11-25T17:59:05.513Z,39.60
2022-11-25T18:00:40.057Z,40.80
2022-11-25T18:02:19.462Z,41.10
2022-11-25T18:03:53.983Z,40.23
2022-11-25T18:05:28.668Z,40.07
2022-11-25T18:07:02.151Z,38.50
2022-11-25T18:08:35.534Z,41.17
2022-11-25T18:10:10.159Z,43.03
2022-11-25T18:11:47.054Z,39.83
2022-11-25T18:13:20.183Z,40.50
2022-11-25T18:14:53.399Z,39.47
2022-11-25T18:16:26.542Z,39.53
2022-11-25T18:18:03.470Z,40.00
2022-11-25T18:19:36.769Z,40.60
2022-11-25T18:21:12.892Z,40.83
2022-11-25T18:22:46.675Z,40.20
2022-11-25T18:24:19.758Z,36.43
2022-11-25T18:25:53.413Z,38.90
2022-11-25T18:27:28.585Z,40.60
2022-11-25T18:29:02.650Z,41.23
2022-11-25T18:30:37.273Z,42.80
2022-11-25T18:32:11.709Z,42.20
2022-11-25T18:33:44.763Z,43.90
2022-11-25T18:35:20.188Z,39.07
2022-11-25T18:36:55.392Z,41.33
2022-11-25T18:38:28.827Z,38.70
2022-11-25T18:40:01.989Z,40.77
2022-11-25T18:41:35.264Z,39.30
2022-11-25T18:43:14.507Z,38.67
2022-11-25T18:44:48.303Z,41.07
2022-11-25T18:46:21.493Z,49.00
2022-11-25T18:47:55.134Z,42.20
2022-11-25T18:49:32.016Z,41.10
2022-11-25T18:51:05.248Z,42.77
2022-11-25T18:52:39.750Z,41.37
2022-11-25T18:54:12.808Z,41.03
2022-11-25T18:55:46.281Z,37.97
2022-11-25T18:57:19.574Z,40.67
2022-11-25T18:58:53.116Z,39.83
2022-11-25T19:00:33.068Z,37.70
2022-11-25T19:02:15.842Z,41.10
2022-11-25T19:03:49.540Z,42.63
2022-11-25T19:05:24.304Z,43.20
2022-11-25T19:06:57.364Z,36.73
2022-11-25T19:08:31.950Z,39.20
2022-11-25T19:10:10.514Z,40.57
2022-11-25T19:11:50.900Z,39.27
2022-11-25T19:13:29.479Z,37.67
2022-11-25T19:15:02.802Z,41.07
2022-11-25T19:16:36.428Z,39.33
2022-11-25T19:18:13.936Z,37.60
2022-11-25T19:19:47.132Z,38.33
2022-11-25T19:21:21.827Z,40.63
2022-11-25T19:23:00.336Z,40.07
2022-11-25T19:24:35.378Z,36.90
2022-11-25T19:26:15.884Z,36.97
2022-11-25T19:27:52.121Z,39.73
2022-11-25T19:29:40.276Z,40.70
2022-11-25T19:31:15.161Z,41.93
2022-11-25T19:32:51.056Z,38.47
2022-11-25T19:34:28.194Z,40.20
2022-11-25T19:36:01.330Z,40.30
2022-11-25T19:37:34.423Z,43.70
2022-11-25T19:39:16.297Z,38.00
2022-11-25T19:40:50.735Z,41.60
2022-11-25T19:42:24.689Z,44.37
2022-11-25T19:43:57.772Z,46.03
2022-11-25T19:45:31.839Z,42.37
2022-11-25T19:47:15.139Z,41.77
2022-11-25T19:48:48.822Z,46.73
2022-11-25T19:50:24.153Z,40.17
2022-11-25T19:51:57.279Z,46.47
2022-11-25T19:53:34.058Z,45.07
2022-11-25T19:55:15.161Z,44.17
2022-11-25T19:56:50.837Z,42.83
2022-11-25T19:58:23.980Z,43.67
2022-11-25T19:59:57.103Z,45.67
2022-11-25T20:01:34.482Z,43.77
2022-11-25T20:03:17.018Z,42.33
2022-11-25T20:04:52.030Z,50.33
2022-11-25T20:06:26.186Z,45.73
2022-11-25T20:07:59.521Z,43.17
2022-11-25T20:09:32.574Z,43.67
2022-11-25T20:11:06.577Z,46.13
2022-11-25T20:12:41.376Z,47.93
2022-11-25T20:14:14.451Z,42.23
2022-11-25T20:15:47.912Z,42.93
2022-11-25T20:17:25.666Z,42.93
2022-11-25T20:18:59.888Z,43.83
2022-11-25T20:20:35.843Z,44.07
2022-11-25T20:22:10.430Z,42.33
2022-11-25T20:23:44.657Z,44.03
2022-11-25T20:25:17.978Z,41.90
2022-11-25T20:26:51.577Z,44.50
2022-11-25T20:28:27.919Z,46.93
2022-11-25T20:30:01.025Z,47.57
2022-11-25T20:31:34.198Z,45.43
2022-11-25T20:33:07.334Z,46.57
2022-11-25T20:34:42.178Z,45.40
2022-11-25T20:36:18.952Z,56.43
2022-11-25T20:37:54.017Z,59.57
2022-11-25T20:39:27.286Z,59.10
2022-11-25T20:41:01.277Z,56.43
2022-11-25T20:42:34.511Z,51.43
2022-11-25T20:44:12.675Z,55.37
2022-11-25T20:45:45.768Z,56.20
2022-11-25T20:47:21.862Z,50.70
2022-11-25T20:48:57.859Z,44.93
2022-11-25T20:50:31.498Z,44.40
2022-11-25T20:52:05.549Z,48.60
2022-11-25T20:53:48.121Z,43.97
2022-11-25T20:55:23.828Z,45.20
2022-11-25T20:56:57.234Z,42.73